createdAt,value
2018-07-01T00:02:15.602Z,3.50
2018-07-01T00:04:43.733Z,3.50
2018-07-01T00:07:11.934Z,3.10
2018-07-01T00:09:40.092Z,3.40
2018-07-01T00:12:08.372Z,3.10
2018-07-01T00:14:36.594Z,3.40
2018-07-01T00:17:04.876Z,3.10
2018-07-01T00:19:33.055Z,3.20
2018-07-01T00:22:01.297Z,3.00
2018-07-01T00:24:29.484Z,3.30
2018-07-01T00:26:57.721Z,2.80
2018-07-01T00:29:25.921Z,3.70
2018-07-01T00:31:54.197Z,3.60
2018-07-01T00:34:22.611Z,4.20
2018-07-01T00:36:50.799Z,4.20
2018-07-01T00:39:18.967Z,4.30
2018-07-01T00:41:47.130Z,4.20
2018-07-01T00:44:15.289Z,4.20
2018-07-01T00:46:43.406Z,3.70
2018-07-01T00:49:11.678Z,3.70
2018-07-01T00:51:39.885Z,4.60
2018-07-01T00:54:08.116Z,4.10
2018-07-01T00:56:36.272Z,4.30
2018-07-01T00:59:04.466Z,4.90
2018-07-01T01:01:32.874Z,4.50
2018-07-01T01:04:01.121Z,5.10
2018-07-01T01:06:29.401Z,5.50
2018-07-01T01:08:57.654Z,5.40
2018-07-01T01:11:25.952Z,5.40
2018-07-01T01:13:54.229Z,5.70
2018-07-01T01:18:50.313Z,4.80
2018-07-01T01:21:18.514Z,5.10
2018-07-01T01:23:46.705Z,5.40
2018-07-01T01:26:14.872Z,5.30
2018-07-01T01:28:43.034Z,5.00
2018-07-01T01:31:11.228Z,5.30
2018-07-01T01:33:39.472Z,5.30
2018-07-01T01:36:07.881Z,5.50
2018-07-01T01:38:38.129Z,5.70
2018-07-01T01:41:11.137Z,6.10
2018-07-01T01:43:46.404Z,6.20
2018-07-01T01:46:20.891Z,5.70
2018-07-01T01:49:03.883Z,5.80
2018-07-01T01:51:41.104Z,5.80
2018-07-01T01:54:28.022Z,6.90
2018-07-01T01:57:01.956Z,6.40
2018-07-01T01:59:40.069Z,6.60
2018-07-01T02:03:20.357Z,6.40
2018-07-01T02:05:52.068Z,6.40
2018-07-01T02:08:27.050Z,6.20
2018-07-01T02:10:55.621Z,6.50
2018-07-01T02:13:23.865Z,6.20
2018-07-01T02:18:27.419Z,6.70
2018-07-01T02:20:56.335Z,6.90
2018-07-01T02:23:28.893Z,7.00
2018-07-01T02:25:57.111Z,6.80
2018-07-01T02:28:25.364Z,6.90
2018-07-01T02:30:53.677Z,6.90
2018-07-01T02:33:21.869Z,7.10
2018-07-01T02:35:50.041Z,7.70
2018-07-01T02:38:18.236Z,7.00
2018-07-01T02:40:46.404Z,7.00
2018-07-01T02:43:14.656Z,7.00
2018-07-01T02:45:42.870Z,7.40
2018-07-01T02:48:11.041Z,7.70
2018-07-01T02:50:39.317Z,8.10
2018-07-01T02:53:07.468Z,7.60
2018-07-01T02:55:35.616Z,7.90
2018-07-01T02:58:03.822Z,8.00
2018-07-01T03:00:31.944Z,8.00
2018-07-01T03:03:00.169Z,8.00
2018-07-01T03:05:28.457Z,8.00
2018-07-01T03:10:24.619Z,8.50
2018-07-01T03:12:52.841Z,8.50
2018-07-01T03:15:21.005Z,8.30
2018-07-01T03:17:49.171Z,8.30
2018-07-01T03:20:17.283Z,8.70
2018-07-01T03:22:45.408Z,8.70
2018-07-01T03:25:13.568Z,8.90
2018-07-01T03:27:41.699Z,8.90
2018-07-01T03:30:09.980Z,9.40
2018-07-01T03:32:38.212Z,9.20
2018-07-01T03:35:06.403Z,9.10
2018-07-01T03:37:34.605Z,9.00
2018-07-01T03:42:30.695Z,9.00
2018-07-01T03:44:58.870Z,9.20
2018-07-01T03:47:27.108Z,9.30
2018-07-01T03:49:55.300Z,9.20
2018-07-01T03:52:23.524Z,9.20
2018-07-01T03:54:51.701Z,9.30
2018-07-01T03:57:19.857Z,9.40
2018-07-01T03:59:47.993Z,10.20
2018-07-01T04:02:16.168Z,9.60
2018-07-01T04:04:44.309Z,9.60
2018-07-01T04:07:12.546Z,9.40
2018-07-01T04:09:40.720Z,9.60
2018-07-01T04:12:09.003Z,9.70
2018-07-01T04:14:37.233Z,9.70
2018-07-01T04:17:05.408Z,9.80
2018-07-01T04:19:36.821Z,9.70
2018-07-01T04:22:06.724Z,10.00
2018-07-01T04:24:35.313Z,10.00
2018-07-01T04:27:03.628Z,9.80
2018-07-01T04:29:32.087Z,10.20
2018-07-01T04:34:28.447Z,10.40
2018-07-01T04:36:56.584Z,10.40
2018-07-01T04:41:53.196Z,10.80
2018-07-01T04:44:21.417Z,11.20
2018-07-01T04:46:49.571Z,11.20
2018-07-01T04:49:17.785Z,11.20
2018-07-01T04:51:45.948Z,10.90
2018-07-01T04:56:42.020Z,10.90
2018-07-01T04:59:10.177Z,10.80
2018-07-01T05:01:38.361Z,10.70
2018-07-01T05:04:06.561Z,11.10
2018-07-01T05:06:34.744Z,11.00
2018-07-01T05:09:03.081Z,10.80
2018-07-01T05:11:31.324Z,11.40
2018-07-01T05:13:59.551Z,11.40
2018-07-01T05:16:27.828Z,11.10
2018-07-01T05:18:56.097Z,11.10
2018-07-01T05:21:24.377Z,12.00
2018-07-01T05:23:52.535Z,10.70
2018-07-01T05:26:20.700Z,11.00
2018-07-01T05:28:48.844Z,10.70
2018-07-01T05:33:44.987Z,10.90
2018-07-01T05:36:13.208Z,10.70
2018-07-01T05:38:41.417Z,10.40
2018-07-01T05:41:09.601Z,10.20
2018-07-01T05:43:37.813Z,10.20
2018-07-01T05:46:05.941Z,10.30
2018-07-01T05:48:34.072Z,9.60
2018-07-01T05:51:02.267Z,9.20
2018-07-01T05:53:30.440Z,9.40
2018-07-01T05:55:58.696Z,9.50
2018-07-01T05:58:26.924Z,9.30
2018-07-01T06:00:55.142Z,8.50
2018-07-01T06:03:23.326Z,8.60
2018-07-01T06:05:51.831Z,8.70
2018-07-01T06:08:20.040Z,8.00
2018-07-01T06:10:48.240Z,7.80
2018-07-01T06:13:16.872Z,8.10
2018-07-01T06:15:45.003Z,8.00
2018-07-01T06:18:13.250Z,7.70
2018-07-01T06:20:41.461Z,7.20
2018-07-01T06:23:09.657Z,7.10
2018-07-01T06:25:37.884Z,7.20
2018-07-01T06:28:06.547Z,6.20
2018-07-01T06:30:34.812Z,6.10
2018-07-01T06:33:03.121Z,5.70
2018-07-01T06:35:31.336Z,5.50
2018-07-01T06:37:59.738Z,5.30
2018-07-01T06:42:56.050Z,5.60
2018-07-01T06:45:24.323Z,5.00
2018-07-01T06:47:52.647Z,5.60
2018-07-01T06:50:20.782Z,5.20
2018-07-01T06:52:48.946Z,5.70
2018-07-01T06:55:17.135Z,5.30
2018-07-01T06:57:45.378Z,2.40
2018-07-01T07:00:13.614Z,3.10
2018-07-01T07:02:41.910Z,4.80
2018-07-01T07:05:10.043Z,4.30
2018-07-01T07:07:38.215Z,4.00
2018-07-01T07:10:06.570Z,2.80
2018-07-01T07:12:34.728Z,2.60
2018-07-01T07:15:03.016Z,1.50
2018-07-01T07:17:31.188Z,3.50
2018-07-01T07:19:59.453Z,3.50
2018-07-01T07:22:27.650Z,1.00
2018-07-01T07:24:55.825Z,1.20
2018-07-01T07:27:24.100Z,1.60
2018-07-01T07:29:52.254Z,2.40
2018-07-01T07:32:20.570Z,3.00
2018-07-01T07:34:48.827Z,2.50
2018-07-01T07:37:17.024Z,2.10
2018-07-01T07:39:45.300Z,1.70
2018-07-01T07:42:13.500Z,2.00
2018-07-01T07:44:41.654Z,2.40
2018-07-01T07:47:09.854Z,3.30
2018-07-01T07:49:38.024Z,2.80
2018-07-01T07:52:06.258Z,1.20
2018-07-01T07:54:34.416Z,1.50
2018-07-01T07:57:02.625Z,2.80
2018-07-01T07:59:30.788Z,2.60
2018-07-01T08:01:59.006Z,2.20
2018-07-01T08:04:27.168Z,1.40
2018-07-01T08:06:55.357Z,1.20
2018-07-01T08:09:23.524Z,1.70
2018-07-01T08:11:51.725Z,2.30
2018-07-01T08:14:19.976Z,1.10
2018-07-01T08:16:48.164Z,1.10
2018-07-01T08:19:16.304Z,1.70
2018-07-01T08:21:44.495Z,1.20
2018-07-01T08:24:12.818Z,1.20
2018-07-01T08:26:41.328Z,2.40
2018-07-01T08:29:09.539Z,2.60
2018-07-01T08:31:37.750Z,1.40
2018-07-01T08:34:07.898Z,1.10
2018-07-01T08:36:36.059Z,1.00
2018-07-01T08:39:07.543Z,1.00
2018-07-01T08:41:47.151Z,1.00
2018-07-01T08:44:17.472Z,1.00
2018-07-01T08:46:45.617Z,1.00
2018-07-01T08:49:13.820Z,1.00
2018-07-01T08:51:41.974Z,1.00
2018-07-01T08:54:10.140Z,1.00
2018-07-01T08:56:38.460Z,1.00
2018-07-01T08:59:11.873Z,1.00
2018-07-01T09:01:43.194Z,1.00
2018-07-01T09:04:11.390Z,1.00
2018-07-01T09:06:39.565Z,1.00
2018-07-01T09:09:08.304Z,1.00
2018-07-01T09:11:36.624Z,1.00
2018-07-01T09:14:04.842Z,1.00
2018-07-01T09:16:33.036Z,1.00
2018-07-01T09:19:01.522Z,1.00
2018-07-01T09:21:29.811Z,1.00
2018-07-01T09:23:58.067Z,1.00
2018-07-01T09:26:26.387Z,1.00
2018-07-01T09:28:56.603Z,1.00
2018-07-01T09:31:28.477Z,1.00
2018-07-01T09:33:59.316Z,1.00
2018-07-01T09:36:30.448Z,1.00
2018-07-01T09:39:02.757Z,1.00
2018-07-01T09:41:35.134Z,1.00
2018-07-01T09:44:04.590Z,1.00
2018-07-01T09:46:36.165Z,1.00
2018-07-01T09:49:07.215Z,1.00
2018-07-01T09:51:38.875Z,1.00
2018-07-01T09:54:12.533Z,1.00
2018-07-01T09:56:41.882Z,1.00
2018-07-01T09:59:11.587Z,1.00
2018-07-01T10:01:44.493Z,1.00
2018-07-01T10:04:14.846Z,1.00
2018-07-01T10:06:49.168Z,1.00
2018-07-01T10:11:08.502Z,1.00
2018-07-01T10:13:36.690Z,1.00
2018-07-01T10:16:05.254Z,1.00
2018-07-01T10:18:33.462Z,1.00
2018-07-01T10:21:01.555Z,1.00
2018-07-01T10:23:29.633Z,1.00
2018-07-01T10:25:57.732Z,1.00
2018-07-01T10:28:25.818Z,1.00
2018-07-01T10:33:22.034Z,1.00
2018-07-01T10:35:50.926Z,1.00
2018-07-01T10:38:19.021Z,1.00
2018-07-01T10:43:16.759Z,1.00
2018-07-01T10:45:44.995Z,1.00
2018-07-01T10:48:13.110Z,1.00
2018-07-01T10:50:41.199Z,1.00
2018-07-01T10:53:09.386Z,1.00
2018-07-01T10:55:37.669Z,1.00
2018-07-01T10:58:05.973Z,1.00
2018-07-01T11:00:34.406Z,1.00
2018-07-01T11:03:03.011Z,1.00
2018-07-01T11:05:31.585Z,1.00
2018-07-01T11:07:59.983Z,1.00
2018-07-01T11:10:28.095Z,1.00
2018-07-01T11:12:56.378Z,1.00
2018-07-01T11:15:24.731Z,1.00
2018-07-01T11:17:52.834Z,1.00
2018-07-01T11:20:21.037Z,1.00
2018-07-01T11:22:49.140Z,1.00
2018-07-01T11:25:17.273Z,1.00
2018-07-01T11:27:45.386Z,1.00
2018-07-01T11:30:13.482Z,1.00
2018-07-01T11:32:41.772Z,1.00
2018-07-01T11:35:10.054Z,1.00
2018-07-01T11:37:38.281Z,1.00
2018-07-01T11:40:06.375Z,1.00
2018-07-01T11:42:34.584Z,1.00
2018-07-01T11:45:02.863Z,1.00
2018-07-01T11:47:31.558Z,1.00
2018-07-01T11:50:00.260Z,1.00
2018-07-01T11:52:28.492Z,1.00
2018-07-01T11:54:56.674Z,1.00
2018-07-01T11:57:25.071Z,1.00
2018-07-01T11:59:53.255Z,1.00
2018-07-01T12:02:21.339Z,1.00
2018-07-01T12:05:02.953Z,1.00
2018-07-01T12:07:17.946Z,1.00
2018-07-01T12:09:46.041Z,1.00
2018-07-01T12:12:14.125Z,1.00
2018-07-01T12:14:42.266Z,1.00
2018-07-01T12:17:10.378Z,1.00
2018-07-01T12:19:38.507Z,1.00
2018-07-01T12:22:06.757Z,1.00
2018-07-01T12:24:34.909Z,1.00
2018-07-01T12:27:03.206Z,1.00
2018-07-01T12:29:31.365Z,1.00
2018-07-01T12:31:59.477Z,1.00
2018-07-01T12:36:55.469Z,1.00
2018-07-01T12:39:23.594Z,1.00
2018-07-01T12:41:51.768Z,1.00
2018-07-01T12:44:19.849Z,1.00
2018-07-01T12:46:47.974Z,1.00
2018-07-01T12:49:16.072Z,1.00
2018-07-01T12:51:44.189Z,1.00
2018-07-01T12:54:12.308Z,1.00
2018-07-01T12:56:40.403Z,1.00
2018-07-01T12:59:08.537Z,1.00
2018-07-01T13:01:36.642Z,1.00
2018-07-01T13:04:05.053Z,1.00
2018-07-01T13:06:33.431Z,1.00
2018-07-01T13:09:01.521Z,1.00
2018-07-01T13:11:29.626Z,1.00
2018-07-01T13:13:57.770Z,1.00
2018-07-01T13:16:25.875Z,1.00
2018-07-01T13:21:50.557Z,1.00
2018-07-01T13:24:19.021Z,1.00
2018-07-01T13:26:47.118Z,1.00
2018-07-01T13:29:15.201Z,1.00
2018-07-01T13:34:11.271Z,1.00
2018-07-01T13:36:39.366Z,1.00
2018-07-01T13:39:09.513Z,1.00
2018-07-01T13:41:37.616Z,1.00
2018-07-01T13:44:07.389Z,1.00
2018-07-01T13:46:35.475Z,1.00
2018-07-01T13:49:04.158Z,1.00
2018-07-01T13:51:32.274Z,1.00
2018-07-01T13:54:00.806Z,1.00
2018-07-01T13:56:29.195Z,1.00
2018-07-01T13:58:57.571Z,1.00
2018-07-01T14:01:25.836Z,1.00
2018-07-01T14:03:53.987Z,1.00
2018-07-01T14:06:22.127Z,1.00
2018-07-01T14:08:50.198Z,1.00
2018-07-01T14:11:18.528Z,1.00
2018-07-01T14:13:46.643Z,1.00
2018-07-01T14:18:42.745Z,1.00
2018-07-01T14:21:10.881Z,1.00
2018-07-01T14:23:38.992Z,1.00
2018-07-01T14:26:07.060Z,1.00
2018-07-01T14:28:35.173Z,1.00
2018-07-01T14:31:03.328Z,1.00
2018-07-01T14:33:31.454Z,1.00
2018-07-01T14:35:59.602Z,1.00
2018-07-01T14:38:27.887Z,1.00
2018-07-01T14:40:56.287Z,1.00
2018-07-01T14:43:24.394Z,1.00
2018-07-01T14:48:20.397Z,1.00
2018-07-01T14:50:48.505Z,1.00
2018-07-01T14:53:16.619Z,1.00
2018-07-01T14:55:44.711Z,1.00
2018-07-01T14:58:12.833Z,1.00
2018-07-01T15:03:09.478Z,1.00
2018-07-01T15:05:37.591Z,1.00
2018-07-01T15:08:06.275Z,1.00
2018-07-01T15:10:34.387Z,1.00
2018-07-01T15:13:02.511Z,1.00
2018-07-01T15:15:30.631Z,1.00
2018-07-01T15:17:59.004Z,1.00
2018-07-01T15:20:27.132Z,1.00
2018-07-01T15:22:55.226Z,1.00
2018-07-01T15:25:23.405Z,1.00
2018-07-01T15:27:51.498Z,1.00
2018-07-01T15:30:20.058Z,1.00
2018-07-01T15:32:48.153Z,1.00
2018-07-01T15:35:17.594Z,1.00
2018-07-01T15:37:45.850Z,1.00
2018-07-01T15:40:13.979Z,1.00
2018-07-01T15:42:42.046Z,1.00
2018-07-01T15:45:10.121Z,1.00
2018-07-01T15:47:38.792Z,1.00
2018-07-01T15:50:06.868Z,1.00
2018-07-01T15:52:34.957Z,1.00
2018-07-01T15:55:03.379Z,1.00
2018-07-01T15:57:31.610Z,1.00
2018-07-01T15:59:59.718Z,1.00
2018-07-01T16:02:27.857Z,1.00
2018-07-01T16:04:55.923Z,1.00
2018-07-01T16:07:24.118Z,1.00
2018-07-01T16:09:52.198Z,1.00
2018-07-01T16:12:20.315Z,1.00
2018-07-01T16:14:48.467Z,1.00
2018-07-01T16:17:16.538Z,1.00
2018-07-01T16:19:44.629Z,1.00
2018-07-01T16:22:12.879Z,1.00
2018-07-01T16:26:52.879Z,1.00
2018-07-01T16:29:20.966Z,1.00
2018-07-01T16:31:49.061Z,1.00
2018-07-01T16:34:17.164Z,1.00
2018-07-01T16:36:45.263Z,1.00
2018-07-01T16:39:13.663Z,1.00
2018-07-01T16:41:41.920Z,1.00
2018-07-01T16:44:10.054Z,1.00
2018-07-01T16:46:38.155Z,1.00
2018-07-01T16:49:06.249Z,1.00
2018-07-01T16:51:34.365Z,1.00
2018-07-01T16:54:02.464Z,1.00
2018-07-01T16:56:30.550Z,1.00
2018-07-01T16:58:58.633Z,1.00
2018-07-01T17:01:26.723Z,1.00
2018-07-01T17:03:54.804Z,1.00
2018-07-01T17:06:22.907Z,1.00
2018-07-01T17:08:50.985Z,1.00
2018-07-01T17:11:19.218Z,1.00
2018-07-01T17:13:47.306Z,1.00
2018-07-01T17:16:15.398Z,1.00
2018-07-01T17:18:43.472Z,1.00
2018-07-01T17:21:11.536Z,1.00
2018-07-01T17:23:39.618Z,1.00
2018-07-01T17:26:07.701Z,1.00
2018-07-01T17:28:35.849Z,1.00
2018-07-01T17:31:09.457Z,1.00
2018-07-01T17:33:37.563Z,1.00
2018-07-01T17:36:05.730Z,1.00
2018-07-01T17:38:33.865Z,1.00
2018-07-01T17:41:02.143Z,1.00
2018-07-01T17:43:30.240Z,1.00
2018-07-01T17:45:59.548Z,1.00
2018-07-01T17:48:27.681Z,1.00
2018-07-01T17:50:55.722Z,1.00
2018-07-01T17:53:35.202Z,1.00
2018-07-01T17:56:03.250Z,1.00
2018-07-01T17:58:31.324Z,1.00
2018-07-01T18:00:59.409Z,1.00
2018-07-01T18:03:27.509Z,1.00
2018-07-01T18:05:55.593Z,1.00
2018-07-01T18:08:23.681Z,1.00
2018-07-01T18:10:51.748Z,1.00
2018-07-01T18:13:19.861Z,1.00
2018-07-01T18:15:49.451Z,1.00
2018-07-01T18:18:17.546Z,1.00
2018-07-01T18:20:45.617Z,1.00
2018-07-01T18:23:44.883Z,1.00
2018-07-01T18:25:41.795Z,1.00
2018-07-01T18:28:22.693Z,1.00
2018-07-01T18:30:38.825Z,1.00
2018-07-01T18:33:07.331Z,1.00
2018-07-01T18:35:35.407Z,1.00
2018-07-01T18:38:03.489Z,1.00
2018-07-01T18:40:31.617Z,1.00
2018-07-01T18:42:59.699Z,1.00
2018-07-01T18:45:27.807Z,1.00
2018-07-01T18:47:56.364Z,1.00
2018-07-01T18:50:24.451Z,1.00
2018-07-01T18:52:52.519Z,1.00
2018-07-01T18:55:21.405Z,1.00
2018-07-01T18:57:49.779Z,1.00
2018-07-01T19:00:17.894Z,1.00
2018-07-01T19:02:45.995Z,1.00
2018-07-01T19:05:14.151Z,1.00
2018-07-01T19:07:42.681Z,1.00
2018-07-01T19:10:10.787Z,1.00
2018-07-01T19:12:38.968Z,1.00
2018-07-01T19:15:07.293Z,1.00
2018-07-01T19:17:35.420Z,1.00
2018-07-01T19:20:03.569Z,1.00
2018-07-01T19:22:33.559Z,1.00
2018-07-01T19:25:01.697Z,1.00
2018-07-01T19:27:29.816Z,1.00
2018-07-01T19:29:57.914Z,1.00
2018-07-01T19:32:26.026Z,1.70
2018-07-01T19:34:54.110Z,1.50
2018-07-01T19:37:22.257Z,1.00
2018-07-01T19:39:50.415Z,1.00
2018-07-01T19:42:18.620Z,1.00
2018-07-01T19:44:46.614Z,1.20
2018-07-01T19:47:14.781Z,1.70
2018-07-01T19:49:42.821Z,2.80
2018-07-01T19:52:11.214Z,2.20
2018-07-01T19:54:39.334Z,2.30
2018-07-01T19:57:07.454Z,2.20
2018-07-01T19:59:35.566Z,2.50
2018-07-01T20:04:31.563Z,3.30
2018-07-01T20:06:59.680Z,3.70
2018-07-01T20:09:27.764Z,4.20
2018-07-01T20:11:55.892Z,3.90
2018-07-01T20:14:23.978Z,2.50
2018-07-01T20:16:53.350Z,3.50
2018-07-01T20:19:21.481Z,3.40
2018-07-01T20:21:49.627Z,3.60
2018-07-01T20:24:17.704Z,3.10
2018-07-01T20:26:45.810Z,3.90
2018-07-01T20:29:13.889Z,3.90
2018-07-01T20:31:42.017Z,4.10
2018-07-01T20:34:10.120Z,3.90
2018-07-01T20:36:38.221Z,4.80
2018-07-01T20:39:09.769Z,4.00
2018-07-01T20:41:38.167Z,4.20
2018-07-01T20:44:06.250Z,3.30
2018-07-01T20:46:34.424Z,3.90
2018-07-01T20:49:02.532Z,4.10
2018-07-01T20:51:30.650Z,4.90
2018-07-01T20:53:58.829Z,4.40
2018-07-01T20:56:26.938Z,5.00
2018-07-01T20:58:55.702Z,5.30
2018-07-01T21:01:23.791Z,5.20
2018-07-01T21:03:51.872Z,4.80
2018-07-01T21:06:19.983Z,4.70
2018-07-01T21:08:48.073Z,5.30
2018-07-01T21:11:16.191Z,5.60
2018-07-01T21:13:44.282Z,5.80
2018-07-01T21:16:12.394Z,4.90
2018-07-01T21:18:40.485Z,5.30
2018-07-01T21:21:08.600Z,5.30
2018-07-01T21:23:36.731Z,5.80
2018-07-01T21:26:05.141Z,5.90
2018-07-01T21:28:33.245Z,5.70
2018-07-01T21:31:01.337Z,5.60
2018-07-01T21:33:29.463Z,6.00
2018-07-01T21:35:57.757Z,4.80
2018-07-01T21:38:25.867Z,5.40
2018-07-01T21:40:53.949Z,5.80
2018-07-01T21:43:22.067Z,6.10
2018-07-01T21:45:50.198Z,5.40
2018-07-01T21:48:18.330Z,5.10
2018-07-01T21:50:46.400Z,5.90
2018-07-01T21:53:14.472Z,5.60
2018-07-01T21:55:42.570Z,5.70
2018-07-01T22:00:39.622Z,4.50
2018-07-01T22:03:07.651Z,4.70
2018-07-01T22:05:35.787Z,5.40
2018-07-01T22:08:03.878Z,5.30
2018-07-01T22:10:43.374Z,5.50
2018-07-01T22:14:36.034Z,4.80
2018-07-01T22:17:05.477Z,5.20
2018-07-01T22:19:33.876Z,5.50
2018-07-01T22:22:02.216Z,5.30
2018-07-01T22:24:32.568Z,5.30
2018-07-01T22:27:00.728Z,5.30
2018-07-01T22:29:28.838Z,5.30
2018-07-01T22:31:57.033Z,4.70
2018-07-01T22:34:25.151Z,4.70
2018-07-01T22:36:53.450Z,4.90
2018-07-01T22:39:23.554Z,4.80
2018-07-01T22:41:52.494Z,4.80
2018-07-01T22:44:20.595Z,4.50
2018-07-01T22:46:49.197Z,4.90
2018-07-01T22:49:17.299Z,4.40
2018-07-01T22:51:45.405Z,4.20
2018-07-01T22:54:13.502Z,5.00
2018-07-01T22:56:41.717Z,5.10
2018-07-01T22:59:09.807Z,4.40
2018-07-01T23:01:51.219Z,4.70
2018-07-01T23:04:19.305Z,4.40
2018-07-01T23:06:47.396Z,4.00
2018-07-01T23:09:15.473Z,4.40
2018-07-01T23:11:43.561Z,4.00
2018-07-01T23:16:39.582Z,4.20
2018-07-01T23:19:07.691Z,4.20
2018-07-01T23:21:35.778Z,4.60
2018-07-01T23:24:03.874Z,4.20
2018-07-01T23:26:31.985Z,4.30
2018-07-01T23:29:00.044Z,4.10
2018-07-01T23:31:28.140Z,4.30
2018-07-01T23:36:24.130Z,4.40
2018-07-01T23:38:52.227Z,4.80
2018-07-01T23:41:20.326Z,3.80
2018-07-01T23:43:48.486Z,4.10
2018-07-01T23:46:16.570Z,4.40
2018-07-01T23:48:44.675Z,4.80
2018-07-01T23:51:12.782Z,4.60
2018-07-01T23:53:40.899Z,4.20
2018-07-01T23:56:09.035Z,4.20
2018-07-01T23:58:37.129Z,4.70
